Time;durP1;ratioP1;P1;durP2;ratioP2;P2;SDS_P1;SDS_P2;PMS_P1;PMS_P2;Temp;Humidity;BMP_temperature;BMP_pressure;BME280_temperature;BME280_humidity;BME280_pressure;Samples;Min_cycle;Max_cycle;Signal;HPM_P1;HPM_P2
2021/08/18 00:01:47;;;;;;;18.48;8.82;;;16.10;99.90;;;;;;5053905;28;20055;-87
2021/08/18 00:04:13;;;;;;;15.35;8.32;;;16.10;99.90;;;;;;5046665;28;20032;-87
2021/08/18 00:06:39;;;;;;;16.05;8.85;;;16.10;99.90;;;;;;5058165;28;20039;-87
2021/08/18 00:09:06;;;;;;;14.98;8.38;;;16.10;99.90;;;;;;5020145;28;20025;-87
2021/08/18 00:11:32;;;;;;;15.63;8.30;;;16.20;99.90;;;;;;5036537;28;20466;-87
2021/08/18 00:13:58;;;;;;;19.52;9.95;;;16.10;99.90;;;;;;5036856;28;20104;-87
2021/08/18 00:16:42;;;;;;;17.92;9.00;;;16.10;99.90;;;;;;5035753;28;20432;-87
2021/08/18 00:19:07;;;;;;;15.18;7.97;;;16.10;99.90;;;;;;5035870;28;20037;-86
2021/08/18 00:21:33;;;;;;;17.00;9.05;;;16.10;99.90;;;;;;5019693;28;20082;-86
2021/08/18 00:23:59;;;;;;;17.77;8.90;;;16.10;99.90;;;;;;5046478;28;20098;-87
2021/08/18 00:26:28;;;;;;;19.50;8.70;;;16.10;99.90;;;;;;5039343;28;20027;-86
2021/08/18 00:28:54;;;;;;;16.65;8.95;;;16.10;99.90;;;;;;5023569;28;20079;-87
2021/08/18 00:31:21;;;;;;;15.82;8.32;;;16.10;99.90;;;;;;5048434;28;20025;-86
2021/08/18 00:33:47;;;;;;;17.02;8.57;;;16.10;99.90;;;;;;5036167;28;20021;-87
2021/08/18 00:36:13;;;;;;;19.92;9.00;;;16.10;99.90;;;;;;5019453;28;20025;-87
2021/08/18 00:38:39;;;;;;;16.88;8.45;;;16.10;99.90;;;;;;5036033;28;20040;-87
2021/08/18 00:41:05;;;;;;;17.10;8.95;;;16.10;99.90;;;;;;5039498;28;20458;-87
2021/08/18 00:43:30;;;;;;;17.27;8.32;;;16.20;99.90;;;;;;5046425;28;20039;-87
2021/08/18 00:45:56;;;;;;;17.73;9.05;;;16.20;99.90;;;;;;5033123;28;20037;-87
2021/08/18 00:48:22;;;;;;;18.73;8.80;;;16.10;99.90;;;;;;5015960;28;20022;-86
2021/08/18 00:50:47;;;;;;;18.00;8.77;;;16.10;99.90;;;;;;5012806;28;20115;-87
2021/08/18 00:53:14;;;;;;;16.65;8.50;;;16.20;99.90;;;;;;5036258;28;20036;-87
2021/08/18 00:55:40;;;;;;;16.40;8.77;;;16.20;99.90;;;;;;5036027;28;20055;-87
2021/08/18 00:58:08;;;;;;;18.92;9.73;;;16.10;99.90;;;;;;5056621;28;20082;-87
2021/08/18 01:00:34;;;;;;;15.60;8.50;;;16.10;99.90;;;;;;5045846;28;20440;-87
2021/08/18 01:03:00;;;;;;;16.38;8.43;;;16.10;99.90;;;;;;5035397;28;20087;-86
2021/08/18 01:05:28;;;;;;;15.07;8.15;;;16.10;99.90;;;;;;5035372;28;20053;-87
2021/08/18 01:07:56;;;;;;;18.42;8.68;;;16.10;99.90;;;;;;5053312;28;20074;-87
2021/08/18 01:10:29;;;;;;;13.68;7.80;;;16.10;99.90;;;;;;5022110;28;20021;-86
2021/08/18 01:12:56;;;;;;;16.45;7.93;;;16.10;99.90;;;;;;5053116;28;20071;-86
2021/08/18 01:15:24;;;;;;;17.15;8.73;;;16.10;99.90;;;;;;5035529;28;20370;-86
2021/08/18 01:17:53;;;;;;;16.90;9.13;;;16.10;99.90;;;;;;5035277;28;20029;-87
2021/08/18 01:20:30;;;;;;;17.50;8.45;;;16.10;99.90;;;;;;5034959;28;20028;-87
2021/08/18 01:23:00;;;;;;;16.27;8.13;;;16.10;99.90;;;;;;5035198;28;20029;-87
2021/08/18 01:25:26;;;;;;;18.55;8.70;;;16.10;99.90;;;;;;5037960;28;20033;-87
2021/08/18 01:27:55;;;;;;;19.73;9.63;;;16.10;99.90;;;;;;5012839;28;20604;-87
2021/08/18 01:30:23;;;;;;;19.00;9.20;;;16.10;99.90;;;;;;5067054;28;20125;-87
2021/08/18 01:32:50;;;;;;;18.92;9.10;;;16.10;99.90;;;;;;5035078;28;20373;-87
2021/08/18 01:35:38;;;;;;;23.05;10.85;;;16.10;99.90;;;;;;5034943;28;20017;-86
2021/08/18 01:38:06;;;;;;;17.80;9.30;;;16.10;99.90;;;;;;5063713;28;20025;-87
2021/08/18 01:40:32;;;;;;;16.95;9.07;;;16.10;99.90;;;;;;5048641;28;20020;-87
2021/08/18 01:42:58;;;;;;;21.85;10.80;;;16.10;99.90;;;;;;5052517;28;20051;-87
2021/08/18 01:45:35;;;;;;;22.60;10.55;;;16.10;99.90;;;;;;5018421;28;20025;-87
2021/08/18 01:48:14;;;;;;;20.20;9.65;;;16.10;99.90;;;;;;5041843;28;20020;-87
2021/08/18 01:50:40;;;;;;;20.63;10.35;;;16.10;99.90;;;;;;5057465;28;20035;-87
2021/08/18 01:53:06;;;;;;;17.58;9.65;;;16.10;99.90;;;;;;5059486;28;20056;-87
2021/08/18 01:55:33;;;;;;;20.17;10.52;;;16.10;99.90;;;;;;5041670;28;20031;-87
2021/08/18 01:57:59;;;;;;;20.08;10.00;;;16.10;99.90;;;;;;5001845;28;20386;-87
2021/08/18 02:00:27;;;;;;;21.17;10.40;;;16.10;99.90;;;;;;5052825;28;20017;-87
2021/08/18 02:02:53;;;;;;;20.90;10.00;;;16.20;99.90;;;;;;5034558;28;20489;-86
2021/08/18 02:05:22;;;;;;;21.92;11.32;;;16.10;99.90;;;;;;5044043;28;20052;-87
2021/08/18 02:07:50;;;;;;;19.50;10.18;;;16.10;99.90;;;;;;5038454;28;20025;-87
2021/08/18 02:10:17;;;;;;;17.15;9.70;;;16.10;99.90;;;;;;4998203;28;20014;-87
2021/08/18 02:12:44;;;;;;;21.90;10.98;;;16.10;99.90;;;;;;5012719;28;20013;-87
2021/08/18 02:15:21;;;;;;;17.60;9.55;;;16.10;99.90;;;;;;5034419;28;20029;-87
2021/08/18 02:17:47;;;;;;;18.55;9.73;;;16.10;99.90;;;;;;5038380;28;20043;-86
2021/08/18 02:20:17;;;;;;;18.98;10.52;;;16.10;99.90;;;;;;5044633;28;20020;-86
2021/08/18 02:22:43;;;;;;;17.50;9.52;;;16.10;99.90;;;;;;5063663;28;20032;-87
2021/08/18 02:25:10;;;;;;;18.30;9.55;;;16.20;99.90;;;;;;5052187;28;20017;-87
2021/08/18 02:27:36;;;;;;;16.30;9.30;;;16.20;99.90;;;;;;5038458;28;20463;-87
2021/08/18 02:30:02;;;;;;;18.42;10.10;;;16.20;99.90;;;;;;5038209;28;20071;-87
2021/08/18 02:32:28;;;;;;;19.33;9.85;;;16.20;99.90;;;;;;5038373;28;20032;-87
2021/08/18 02:34:53;;;;;;;16.35;9.85;;;16.20;99.90;;;;;;5038260;28;20033;-87
2021/08/18 02:37:19;;;;;;;17.67;9.50;;;16.20;99.90;;;;;;5056115;28;20032;-87
2021/08/18 02:39:45;;;;;;;17.08;9.75;;;16.20;99.90;;;;;;5018475;28;20501;-87
2021/08/18 02:42:10;;;;;;;17.17;9.15;;;16.20;99.90;;;;;;5032992;28;20422;-87
2021/08/18 02:44:36;;;;;;;14.05;8.55;;;16.20;99.90;;;;;;5038088;28;20078;-87
2021/08/18 02:47:02;;;;;;;16.20;8.57;;;16.20;99.90;;;;;;5021495;28;20029;-86
2021/08/18 02:49:28;;;;;;;14.25;8.10;;;16.20;99.90;;;;;;5037848;28;20489;-86
2021/08/18 02:51:54;;;;;;;15.10;8.40;;;16.20;99.90;;;;;;5055892;28;20076;-86
2021/08/18 02:54:19;;;;;;;13.25;7.53;;;16.10;99.90;;;;;;5055693;28;20386;-86
2021/08/18 02:56:45;;;;;;;13.80;7.28;;;16.10;99.90;;;;;;5021302;28;20024;-86
2021/08/18 02:59:11;;;;;;;13.18;7.90;;;16.10;99.90;;;;;;5004948;28;20501;-86
2021/08/18 03:01:38;;;;;;;14.82;7.72;;;16.20;99.90;;;;;;5021603;28;20028;-86
2021/08/18 03:04:04;;;;;;;11.57;6.82;;;16.10;99.90;;;;;;5037996;28;20107;-86
2021/08/18 03:06:29;;;;;;;12.98;7.40;;;16.10;99.90;;;;;;5056743;28;20108;-86
2021/08/18 03:08:55;;;;;;;13.43;7.53;;;16.20;99.90;;;;;;5046496;28;20466;-86
2021/08/18 03:11:21;;;;;;;12.68;7.30;;;16.20;99.90;;;;;;5040713;28;20206;-86
2021/08/18 03:13:46;;;;;;;11.98;6.50;;;16.10;99.90;;;;;;5031904;28;20454;-86
2021/08/18 03:16:12;;;;;;;12.95;7.05;;;16.20;99.90;;;;;;5020815;28;20127;-86
2021/08/18 03:18:38;;;;;;;11.32;6.80;;;16.10;99.90;;;;;;5001131;28;20040;-86
2021/08/18 03:21:03;;;;;;;11.48;6.03;;;16.10;99.90;;;;;;5037682;28;20037;-86
2021/08/18 03:23:29;;;;;;;11.82;6.45;;;16.10;99.90;;;;;;5037099;28;20367;-86
2021/08/18 03:25:55;;;;;;;11.65;6.95;;;16.10;99.90;;;;;;5066065;28;20077;-86
2021/08/18 03:28:21;;;;;;;10.43;6.30;;;16.10;99.90;;;;;;5039434;28;20363;-86
2021/08/18 03:30:46;;;;;;;11.10;5.88;;;16.10;99.90;;;;;;5021219;28;20036;-85
2021/08/18 03:33:12;;;;;;;9.98;6.03;;;16.10;99.90;;;;;;5037764;28;20474;-86
2021/08/18 03:35:38;;;;;;;11.20;5.75;;;16.10;99.90;;;;;;5054784;28;20032;-86
2021/08/18 03:38:03;;;;;;;12.55;6.40;;;16.10;99.90;;;;;;5020579;28;20362;-87
2021/08/18 03:40:30;;;;;;;12.60;6.20;;;16.10;99.90;;;;;;5036738;28;20553;-86
2021/08/18 03:42:55;;;;;;;9.75;5.88;;;16.10;99.90;;;;;;5037214;28;20032;-86
2021/08/18 03:45:21;;;;;;;11.35;6.05;;;16.10;99.90;;;;;;5037122;28;20425;-86
2021/08/18 03:47:47;;;;;;;11.32;5.95;;;16.10;99.90;;;;;;5036773;28;20040;-86
2021/08/18 03:50:12;;;;;;;13.07;5.88;;;16.00;99.90;;;;;;5017210;28;20468;-86
2021/08/18 03:52:42;;;;;;;10.82;5.72;;;16.00;99.90;;;;;;5047629;28;20094;-86
2021/08/18 03:55:10;;;;;;;8.70;5.60;;;16.00;99.90;;;;;;5054681;28;20021;-86
2021/08/18 03:57:36;;;;;;;9.63;6.10;;;16.00;99.90;;;;;;5020065;28;20064;-86
2021/08/18 04:00:03;;;;;;;9.10;5.50;;;16.00;99.90;;;;;;5020189;28;20064;-86
2021/08/18 04:02:29;;;;;;;9.70;5.47;;;16.00;99.90;;;;;;5036504;28;20032;-85
2021/08/18 04:04:54;;;;;;;9.82;5.55;;;16.00;99.90;;;;;;5017304;28;20093;-85
2021/08/18 04:07:20;;;;;;;8.63;5.50;;;16.00;99.90;;;;;;5054291;28;20068;-86
2021/08/18 04:09:45;;;;;;;11.55;6.07;;;16.00;99.90;;;;;;5023940;28;20525;-86
2021/08/18 04:12:11;;;;;;;9.23;5.13;;;16.00;99.90;;;;;;5064254;28;20503;-86
2021/08/18 04:14:37;;;;;;;9.10;5.68;;;16.00;99.90;;;;;;5033907;28;20032;-86
2021/08/18 04:17:02;;;;;;;10.55;6.25;;;16.00;99.90;;;;;;5062237;28;20043;-86
2021/08/18 04:19:28;;;;;;;13.32;6.15;;;16.00;99.90;;;;;;5026027;28;20385;-86
2021/08/18 04:21:54;;;;;;;8.32;5.45;;;15.90;99.90;;;;;;5036221;28;20466;-86
2021/08/18 04:24:20;;;;;;;9.50;5.68;;;15.90;99.90;;;;;;5031549;28;20367;-86
2021/08/18 04:26:45;;;;;;;10.00;5.65;;;15.90;99.90;;;;;;5005141;28;20090;-86
2021/08/18 04:29:11;;;;;;;9.60;5.65;;;15.90;99.90;;;;;;5009470;28;20115;-86
2021/08/18 04:31:37;;;;;;;13.25;6.03;;;15.90;99.90;;;;;;5027690;28;20060;-86
2021/08/18 04:34:02;;;;;;;10.18;6.35;;;15.90;99.90;;;;;;5023610;28;20091;-86
2021/08/18 04:36:28;;;;;;;11.57;6.20;;;15.90;99.90;;;;;;5056090;28;20115;-86
2021/08/18 04:38:53;;;;;;;10.30;5.68;;;15.80;99.90;;;;;;5023106;28;20478;-86
2021/08/18 04:41:19;;;;;;;10.25;5.70;;;15.90;99.90;;;;;;5035970;28;20067;-86
2021/08/18 04:43:45;;;;;;;11.18;5.95;;;15.90;99.90;;;;;;5036216;28;20425;-86
2021/08/18 04:46:10;;;;;;;12.43;5.68;;;15.90;99.90;;;;;;5022008;28;20029;-87
2021/08/18 04:48:36;;;;;;;10.38;6.30;;;15.90;99.90;;;;;;5019238;28;20025;-86
2021/08/18 04:51:02;;;;;;;10.05;6.13;;;15.90;99.90;;;;;;5043742;23;20049;-85
2021/08/18 04:53:28;;;;;;;8.95;5.30;;;15.80;99.90;;;;;;5036232;28;20481;-85
2021/08/18 04:55:54;;;;;;;10.27;5.65;;;15.80;99.90;;;;;;5035707;28;20136;-85
2021/08/18 04:58:19;;;;;;;10.00;5.85;;;15.80;99.90;;;;;;5019620;28;20089;-85
2021/08/18 05:00:45;;;;;;;9.98;5.90;;;15.90;99.90;;;;;;5052158;28;20481;-84
2021/08/18 05:03:13;;;;;;;10.32;5.53;;;15.90;99.90;;;;;;5052571;28;20470;-84
2021/08/18 05:05:39;;;;;;;9.82;5.47;;;15.90;99.90;;;;;;5051996;28;20021;-85
2021/08/18 05:08:06;;;;;;;10.80;5.55;;;15.90;99.90;;;;;;5035448;28;20033;-84
2021/08/18 05:10:33;;;;;;;13.05;6.47;;;15.90;99.90;;;;;;5035826;28;20083;-85
2021/08/18 05:12:59;;;;;;;9.82;5.68;;;15.90;99.90;;;;;;5021440;28;20475;-84
2021/08/18 05:15:25;;;;;;;12.80;6.30;;;15.90;99.90;;;;;;5018968;28;20027;-85
2021/08/18 05:17:51;;;;;;;9.50;5.40;;;15.90;99.90;;;;;;5035231;28;20494;-84
2021/08/18 05:20:16;;;;;;;11.35;6.03;;;15.90;99.90;;;;;;5051721;28;20016;-85
2021/08/18 05:22:43;;;;;;;9.63;5.65;;;15.90;99.90;;;;;;5035178;28;20505;-84
2021/08/18 05:25:10;;;;;;;11.82;5.93;;;15.90;99.90;;;;;;5051736;28;20021;-84
2021/08/18 05:27:37;;;;;;;10.57;5.30;;;15.90;99.90;;;;;;5035191;28;20032;-84
2021/08/18 05:30:04;;;;;;;9.73;5.63;;;15.90;99.90;;;;;;5022294;28;20057;-84
2021/08/18 05:32:30;;;;;;;8.70;5.68;;;15.90;99.90;;;;;;5020820;28;20021;-84
2021/08/18 05:34:56;;;;;;;12.25;5.93;;;15.90;99.90;;;;;;5051494;28;20087;-84
2021/08/18 05:37:21;;;;;;;10.25;5.78;;;15.90;99.90;;;;;;5035015;28;20033;-85
2021/08/18 05:39:47;;;;;;;8.93;5.40;;;15.90;99.90;;;;;;5035000;28;20043;-84
2021/08/18 05:42:13;;;;;;;9.80;5.93;;;15.90;99.90;;;;;;5018528;28;20478;-84
2021/08/18 05:44:39;;;;;;;9.98;6.10;;;16.00;99.90;;;;;;5018503;28;20036;-84
2021/08/18 05:47:04;;;;;;;9.63;6.40;;;16.00;99.90;;;;;;5034902;28;20054;-84
2021/08/18 05:49:30;;;;;;;10.38;6.82;;;16.00;99.90;;;;;;5034481;28;20013;-84
2021/08/18 05:51:56;;;;;;;11.98;7.07;;;16.00;99.90;;;;;;5050572;28;20868;-84
2021/08/18 05:54:21;;;;;;;12.98;7.45;;;16.00;99.90;;;;;;5051433;28;20036;-84
2021/08/18 05:56:48;;;;;;;10.95;7.47;;;16.00;99.90;;;;;;5044247;28;20044;-84
2021/08/18 05:59:14;;;;;;;12.45;7.55;;;16.00;99.90;;;;;;5011186;28;20035;-85
2021/08/18 06:01:39;;;;;;;11.90;7.57;;;16.00;99.90;;;;;;5051049;28;20029;-84
2021/08/18 06:04:05;;;;;;;13.07;7.05;;;16.00;99.90;;;;;;5034415;28;20021;-84
2021/08/18 06:06:31;;;;;;;12.05;6.97;;;16.00;99.90;;;;;;5017941;28;20095;-84
2021/08/18 06:08:58;;;;;;;11.35;7.28;;;16.10;99.90;;;;;;5034492;28;20025;-84
2021/08/18 06:11:24;;;;;;;10.30;6.82;;;16.10;99.90;;;;;;5034686;28;20017;-84
2021/08/18 06:13:50;;;;;;;12.32;7.03;;;16.10;99.90;;;;;;5048049;28;20549;-84
2021/08/18 06:16:15;;;;;;;11.50;6.70;;;16.10;99.90;;;;;;5034050;28;20088;-83
2021/08/18 06:18:41;;;;;;;13.32;7.68;;;16.10;99.90;;;;;;5051290;28;20113;-84
2021/08/18 06:21:07;;;;;;;10.82;6.88;;;16.20;99.90;;;;;;5050991;28;20039;-84
2021/08/18 06:23:33;;;;;;;10.13;6.32;;;16.20;99.90;;;;;;5017705;28;20039;-84
2021/08/18 06:25:59;;;;;;;12.68;6.97;;;16.20;99.90;;;;;;5049413;28;20386;-84
2021/08/18 06:28:25;;;;;;;9.30;6.00;;;16.20;99.90;;;;;;5032046;28;20025;-84
2021/08/18 06:30:53;;;;;;;11.20;6.35;;;16.20;99.90;;;;;;5050703;28;20406;-84
2021/08/18 06:33:18;;;;;;;11.40;6.32;;;16.20;99.90;;;;;;5050945;28;20045;-84
2021/08/18 06:35:44;;;;;;;13.77;6.13;;;16.30;99.90;;;;;;5007379;28;20040;-84
2021/08/18 06:38:10;;;;;;;12.18;7.03;;;16.30;99.90;;;;;;5044373;28;20021;-84
2021/08/18 06:40:36;;;;;;;11.60;6.88;;;16.30;99.90;;;;;;5050873;28;20025;-84
2021/08/18 06:43:01;;;;;;;13.55;6.43;;;16.30;99.90;;;;;;5050589;28;20147;-84
2021/08/18 06:45:29;;;;;;;11.10;6.05;;;16.40;99.90;;;;;;5034163;28;20052;-84
2021/08/18 06:47:55;;;;;;;10.40;5.82;;;16.40;99.90;;;;;;5047580;28;20021;-84
2021/08/18 06:50:21;;;;;;;9.32;5.30;;;16.40;99.90;;;;;;5033929;28;20032;-81
2021/08/18 06:52:46;;;;;;;10.00;5.82;;;16.40;99.90;;;;;;5033981;28;20045;-82
2021/08/18 06:55:12;;;;;;;10.98;5.65;;;16.40;99.90;;;;;;5016774;28;20037;-82
2021/08/18 06:57:38;;;;;;;10.15;5.45;;;16.40;99.90;;;;;;5022732;28;20390;-82
2021/08/18 07:00:05;;;;;;;8.98;5.70;;;16.40;99.90;;;;;;5018600;28;20458;-82
2021/08/18 07:02:31;;;;;;;10.18;5.53;;;16.50;99.90;;;;;;5047746;28;20045;-83
2021/08/18 07:04:56;;;;;;;11.07;6.13;;;16.50;99.90;;;;;;5019952;28;20113;-83
2021/08/18 07:07:22;;;;;;;10.43;5.55;;;16.50;99.90;;;;;;5037425;28;20052;-83
2021/08/18 07:09:47;;;;;;;9.43;5.78;;;16.50;99.90;;;;;;5021074;28;20390;-83
2021/08/18 07:12:13;;;;;;;12.48;6.20;;;16.50;99.90;;;;;;5054040;28;20044;-83
2021/08/18 07:14:39;;;;;;;13.50;6.65;;;16.50;99.90;;;;;;5037342;28;20035;-82
2021/08/18 07:17:05;;;;;;;10.27;5.70;;;16.50;99.90;;;;;;5053909;28;20056;-83
2021/08/18 07:19:30;;;;;;;9.23;5.85;;;16.50;99.90;;;;;;5043828;28;20029;-83
2021/08/18 07:21:56;;;;;;;9.27;5.40;;;16.40;99.90;;;;;;5051639;28;20029;-83
2021/08/18 07:24:24;;;;;;;10.93;6.05;;;16.50;99.90;;;;;;5043512;28;20053;-83
2021/08/18 07:26:50;;;;;;;11.90;6.68;;;16.50;99.90;;;;;;5050151;28;20029;-81
2021/08/18 07:29:15;;;;;;;11.73;7.00;;;16.50;99.90;;;;;;5054881;28;20070;-81
2021/08/18 07:31:41;;;;;;;9.77;6.28;;;16.50;99.90;;;;;;5053573;28;20086;-81
2021/08/18 07:34:07;;;;;;;11.13;7.00;;;16.50;99.90;;;;;;5053428;28;20021;-81
2021/08/18 07:36:32;;;;;;;11.13;7.45;;;16.50;99.90;;;;;;5036057;28;20032;-80
2021/08/18 07:38:58;;;;;;;13.27;7.35;;;16.50;99.90;;;;;;5047342;28;20036;-80
2021/08/18 07:41:25;;;;;;;12.50;7.85;;;16.50;99.90;;;;;;5036827;28;20367;-82
2021/08/18 07:43:51;;;;;;;11.73;7.22;;;16.60;99.90;;;;;;5033284;28;20052;-82
2021/08/18 07:46:17;;;;;;;9.70;5.97;;;16.60;99.90;;;;;;5046456;28;20556;-81
2021/08/18 07:48:42;;;;;;;10.27;5.72;;;16.60;99.90;;;;;;5049405;28;20029;-83
2021/08/18 07:51:08;;;;;;;8.95;6.13;;;16.70;99.90;;;;;;5019834;28;20395;-82
2021/08/18 07:53:36;;;;;;;10.27;5.78;;;16.70;99.90;;;;;;5036708;28;20025;-82
2021/08/18 07:56:02;;;;;;;10.27;6.20;;;16.70;99.90;;;;;;5036752;28;20028;-82
2021/08/18 07:58:27;;;;;;;10.93;6.57;;;16.70;99.90;;;;;;5053617;28;20394;-82
2021/08/18 08:00:53;;;;;;;9.60;5.70;;;16.80;99.90;;;;;;5036368;28;20478;-81
2021/08/18 08:03:19;;;;;;;8.77;5.57;;;16.80;99.90;;;;;;5053075;28;20029;-82
2021/08/18 08:05:44;;;;;;;9.10;6.10;;;16.80;99.90;;;;;;5035922;28;20025;-82
2021/08/18 08:08:10;;;;;;;10.10;5.75;;;16.80;99.90;;;;;;5047956;28;20047;-83
2021/08/18 08:10:35;;;;;;;7.68;5.50;;;16.80;99.90;;;;;;5052797;28;20429;-82
2021/08/18 08:13:04;;;;;;;11.73;6.43;;;16.90;99.90;;;;;;5052734;28;20053;-84
2021/08/18 08:15:30;;;;;;;9.63;6.57;;;16.90;99.90;;;;;;5037075;28;20123;-84
2021/08/18 08:17:59;;;;;;;10.35;6.47;;;16.90;99.90;;;;;;5037021;28;20171;-83
2021/08/18 08:20:27;;;;;;;9.18;6.75;;;16.90;99.90;;;;;;5015842;28;20029;-84
2021/08/18 08:22:56;;;;;;;8.13;5.70;;;16.90;99.90;;;;;;5046870;28;20112;-83
2021/08/18 08:25:22;;;;;;;9.05;5.82;;;16.90;99.90;;;;;;5050233;28;20471;-83
2021/08/18 08:27:48;;;;;;;10.85;7.50;;;16.90;99.90;;;;;;5044517;28;20033;-84
2021/08/18 08:30:14;;;;;;;12.20;7.65;;;16.90;99.90;;;;;;5048505;28;20536;-83
2021/08/18 08:32:40;;;;;;;12.30;7.40;;;17.00;99.90;;;;;;5041683;28;20024;-84
2021/08/18 08:35:09;;;;;;;14.32;8.30;;;17.00;99.90;;;;;;5039723;28;20459;-84
2021/08/18 08:37:35;;;;;;;11.30;8.05;;;17.00;99.90;;;;;;5048799;28;20025;-84
2021/08/18 08:40:02;;;;;;;13.55;9.50;;;17.00;99.90;;;;;;5031150;28;20124;-83
2021/08/18 08:42:28;;;;;;;12.07;9.30;;;17.10;99.90;;;;;;5053828;28;20025;-84
2021/08/18 08:44:58;;;;;;;14.00;10.50;;;17.10;99.90;;;;;;5053018;28;20124;-84
2021/08/18 08:47:23;;;;;;;17.98;12.02;;;17.10;99.90;;;;;;5050099;28;20017;-84
2021/08/18 08:49:49;;;;;;;16.23;12.23;;;17.20;99.90;;;;;;5028836;28;20022;-84
2021/08/18 08:52:15;;;;;;;17.98;12.65;;;17.20;99.90;;;;;;5006496;28;20518;-84
2021/08/18 08:54:44;;;;;;;14.63;11.82;;;17.30;99.90;;;;;;5018963;28;20044;-84
2021/08/18 08:57:11;;;;;;;13.95;11.07;;;17.30;99.90;;;;;;5047612;28;20368;-84
2021/08/18 08:59:36;;;;;;;17.77;11.57;;;17.40;99.90;;;;;;5027970;28;20048;-84
2021/08/18 09:02:12;;;;;;;15.35;12.60;;;17.40;99.90;;;;;;5052597;28;20068;-85
2021/08/18 09:04:46;;;;;;;16.25;11.65;;;17.50;99.90;;;;;;5052028;28;20031;-84
2021/08/18 09:07:22;;;;;;;19.15;12.57;;;17.40;99.90;;;;;;5040036;28;20112;-84
2021/08/18 09:09:55;;;;;;;17.85;12.40;;;17.50;99.90;;;;;;5051239;28;20363;-85
2021/08/18 09:12:32;;;;;;;16.20;11.05;;;17.50;99.90;;;;;;5036345;28;20028;-84
2021/08/18 09:15:12;;;;;;;18.25;11.68;;;17.50;99.90;;;;;;5045431;28;20104;-85
2021/08/18 09:17:38;;;;;;;16.83;12.13;;;17.60;99.90;;;;;;5052059;28;20498;-84
2021/08/18 09:20:18;;;;;;;15.32;11.57;;;17.60;99.90;;;;;;5036178;28;20168;-85
2021/08/18 09:22:48;;;;;;;15.98;11.82;;;17.60;99.90;;;;;;5061724;28;20033;-85
2021/08/18 09:25:16;;;;;;;19.00;12.98;;;17.60;99.90;;;;;;5051974;28;20024;-85
2021/08/18 09:27:43;;;;;;;17.10;12.73;;;17.70;99.90;;;;;;5052859;28;20075;-85
2021/08/18 09:30:27;;;;;;;18.63;13.23;;;17.70;99.90;;;;;;5036284;28;20033;-85
2021/08/18 09:32:54;;;;;;;17.98;12.25;;;17.70;99.90;;;;;;5042849;28;20025;-86
2021/08/18 09:35:22;;;;;;;18.48;14.88;;;17.70;99.90;;;;;;5036194;28;20025;-85
2021/08/18 09:38:01;;;;;;;19.83;15.95;;;17.80;99.90;;;;;;5052067;28;20024;-84
2021/08/18 09:40:31;;;;;;;18.67;15.13;;;17.80;99.90;;;;;;5049392;28;20025;-84
2021/08/18 09:43:18;;;;;;;21.87;16.73;;;17.80;99.90;;;;;;5052461;28;20025;-84
2021/08/18 09:45:45;;;;;;;19.55;15.15;;;17.90;99.90;;;;;;5052065;28;20060;-84
2021/08/18 09:48:12;;;;;;;17.42;13.32;;;17.90;99.90;;;;;;5035205;28;20057;-84
2021/08/18 09:50:42;;;;;;;17.60;15.15;;;17.90;99.90;;;;;;5053273;28;20055;-84
2021/08/18 09:53:14;;;;;;;20.83;16.45;;;18.00;99.90;;;;;;5052174;28;20037;-84
2021/08/18 09:56:07;;;;;;;19.35;16.55;;;18.00;99.90;;;;;;5051936;28;20116;-84
2021/08/18 09:58:33;;;;;;;21.50;18.75;;;18.00;99.90;;;;;;5043859;28;20029;-83
2021/08/18 10:01:05;;;;;;;21.35;18.77;;;18.10;99.90;;;;;;5047660;28;20082;-83
2021/08/18 10:03:32;;;;;;;23.70;20.42;;;18.10;99.90;;;;;;5043433;28;20025;-84
2021/08/18 10:05:58;;;;;;;27.50;21.65;;;18.20;99.90;;;;;;5046466;28;20091;-84
2021/08/18 10:08:24;;;;;;;24.30;21.65;;;18.30;99.90;;;;;;5035137;28;20068;-84
2021/08/18 10:10:51;;;;;;;23.95;20.77;;;18.30;99.90;;;;;;5034709;28;20037;-83
2021/08/18 10:13:17;;;;;;;21.30;18.58;;;18.30;99.90;;;;;;5046386;28;20068;-83
2021/08/18 10:15:44;;;;;;;22.63;20.23;;;18.30;99.90;;;;;;5026342;28;20079;-83
2021/08/18 10:18:10;;;;;;;20.45;18.25;;;18.30;99.90;;;;;;5052862;28;20029;-83
2021/08/18 10:20:37;;;;;;;20.70;18.58;;;18.40;99.90;;;;;;5034592;28;20478;-83
2021/08/18 10:23:05;;;;;;;20.90;18.73;;;18.40;99.90;;;;;;5053821;28;20033;-83
2021/08/18 10:25:36;;;;;;;19.60;16.83;;;18.40;99.90;;;;;;5048813;28;20029;-83
2021/08/18 10:28:11;;;;;;;18.52;16.50;;;18.40;99.90;;;;;;5051468;28;20037;-83
2021/08/18 10:30:54;;;;;;;15.23;13.63;;;18.40;99.90;;;;;;5034568;28;20025;-83
2021/08/18 10:33:51;;;;;;;15.10;13.50;;;18.40;99.90;;;;;;5053130;28;20013;-83
2021/08/18 10:36:41;;;;;;;16.67;13.18;;;18.50;99.90;;;;;;5041518;28;20075;-83
2021/08/18 10:39:22;;;;;;;14.27;12.77;;;18.50;99.90;;;;;;5042150;28;20021;-83
2021/08/18 10:42:04;;;;;;;13.57;11.10;;;18.50;99.90;;;;;;5054607;28;20044;-83
2021/08/18 10:44:50;;;;;;;13.30;11.80;;;18.50;99.90;;;;;;5058326;28;20028;-83
2021/08/18 10:47:23;;;;;;;14.80;11.40;;;18.50;99.90;;;;;;5038672;28;20026;-84
2021/08/18 10:52:49;;;;;;;15.60;12.95;;;18.60;99.90;;;;;;5028639;28;20063;-84
2021/08/18 10:55:18;;;;;;;16.92;13.77;;;18.60;99.90;;;;;;5024643;28;20021;-86
2021/08/18 10:57:49;;;;;;;10.65;9.40;;;18.60;99.90;;;;;;5023196;28;20105;-85
2021/08/18 11:00:45;;;;;;;9.90;7.53;;;18.60;99.90;;;;;;5034043;28;20116;-86
2021/08/18 11:03:14;;;;;;;8.30;7.05;;;18.50;99.90;;;;;;5021541;28;20026;-86
2021/08/18 11:05:40;;;;;;;9.15;7.50;;;18.50;99.90;;;;;;5032688;28;20029;-86
2021/08/18 11:08:08;;;;;;;7.35;6.50;;;18.40;99.90;;;;;;5034034;28;20028;-85
2021/08/18 11:10:41;;;;;;;8.55;7.65;;;18.40;99.90;;;;;;5034491;28;20064;-84
2021/08/18 11:13:12;;;;;;;8.90;8.00;;;18.30;99.90;;;;;;5033925;28;20018;-85
2021/08/18 11:15:40;;;;;;;9.50;7.53;;;18.40;99.90;;;;;;5017593;28;20120;-83
2021/08/18 11:18:06;;;;;;;10.68;8.40;;;18.30;99.90;;;;;;5033793;28;20466;-84
2021/08/18 11:20:32;;;;;;;8.35;6.90;;;18.40;99.90;;;;;;5033738;28;20022;-84
2021/08/18 11:22:58;;;;;;;7.57;5.90;;;18.30;99.90;;;;;;5014330;28;20045;-83
2021/08/18 11:25:25;;;;;;;6.18;4.57;;;18.30;99.90;;;;;;5033986;28;20052;-84
2021/08/18 11:27:52;;;;;;;5.47;4.38;;;18.40;99.90;;;;;;5017377;28;20030;-85
2021/08/18 11:30:28;;;;;;;6.32;4.35;;;18.40;99.90;;;;;;5017195;28;20033;-85
2021/08/18 11:32:54;;;;;;;4.18;3.78;;;18.40;99.90;;;;;;5033755;28;20036;-84
2021/08/18 11:35:37;;;;;;;5.68;3.90;;;18.50;99.90;;;;;;5017234;28;20029;-83
2021/08/18 11:38:09;;;;;;;5.18;4.30;;;18.50;99.90;;;;;;5017123;28;20033;-84
2021/08/18 11:40:36;;;;;;;6.22;4.32;;;18.60;99.90;;;;;;5033531;28;20367;-83
2021/08/18 11:43:02;;;;;;;6.43;4.93;;;18.60;99.80;;;;;;5017029;28;20057;-83
2021/08/18 11:45:29;;;;;;;6.18;4.63;;;18.60;99.90;;;;;;5016819;28;20029;-85
2021/08/18 11:48:05;;;;;;;7.80;5.80;;;18.70;99.90;;;;;;5032836;28;20029;-84
2021/08/18 11:50:31;;;;;;;7.43;6.50;;;18.80;99.90;;;;;;5033582;28;20492;-83
2021/08/18 11:53:04;;;;;;;9.18;8.10;;;18.80;99.90;;;;;;5022214;28;20466;-83
2021/08/18 11:55:31;;;;;;;9.27;8.20;;;18.80;99.60;;;;;;5043866;28;20029;-84
2021/08/18 11:58:02;;;;;;;12.90;9.40;;;18.90;99.90;;;;;;5051803;28;20035;-84
2021/08/18 12:00:28;;;;;;;;;;;18.90;99.90;;;;;;5053537;28;20110;-84
2021/08/18 12:02:54;;;;;;;11.13;9.60;;;19.00;99.90;;;;;;5022166;28;19964;-85
2021/08/18 12:05:34;;;;;;;12.98;10.38;;;18.90;99.90;;;;;;5026249;28;20033;-85
2021/08/18 12:08:07;;;;;;;11.43;10.15;;;18.90;99.90;;;;;;5052797;28;20028;-85
2021/08/18 12:10:41;;;;;;;13.63;11.07;;;18.90;99.90;;;;;;5045733;28;20028;-85
2021/08/18 12:13:15;;;;;;;12.38;10.98;;;18.80;99.90;;;;;;5035935;28;20017;-85
2021/08/18 12:15:46;;;;;;;14.38;11.95;;;18.80;99.90;;;;;;5054714;28;20028;-85
2021/08/18 12:18:35;;;;;;;14.50;11.52;;;18.80;99.90;;;;;;5050047;28;20031;-85
2021/08/18 12:21:27;;;;;;;12.13;10.90;;;18.80;99.90;;;;;;5045527;28;20029;-85
2021/08/18 12:23:56;;;;;;;13.98;12.40;;;18.80;99.90;;;;;;5024552;28;20024;-86
2021/08/18 12:26:29;;;;;;;13.95;12.38;;;18.80;99.90;;;;;;5035822;28;20029;-86
2021/08/18 12:28:57;;;;;;;14.35;12.57;;;18.80;99.90;;;;;;5036378;28;20462;-85
2021/08/18 12:31:24;;;;;;;15.20;12.60;;;18.90;99.90;;;;;;5052561;28;20070;-85
2021/08/18 12:34:09;;;;;;;14.73;12.40;;;18.90;99.90;;;;;;5023579;28;20060;-85
2021/08/18 12:36:36;;;;;;;16.73;13.82;;;19.00;99.90;;;;;;5026984;28;20059;-85
2021/08/18 12:39:03;;;;;;;15.88;12.60;;;19.00;99.90;;;;;;5052131;28;20032;-85
2021/08/18 12:41:31;;;;;;;14.15;11.73;;;19.00;99.90;;;;;;5046696;28;20087;-86
2021/08/18 12:44:05;;;;;;;15.27;11.77;;;19.00;99.90;;;;;;5035953;28;20112;-86